createdAt,value
2018-08-09T00:00:22.915Z,72.26
2018-08-09T00:02:51.328Z,71.11
2018-08-09T00:05:19.734Z,72.57
2018-08-09T00:07:48.031Z,72.60
2018-08-09T00:10:16.436Z,72.13
2018-08-09T00:12:45.012Z,72.61
2018-08-09T00:15:13.434Z,73.31
2018-08-09T00:17:42.202Z,73.32
2018-08-09T00:20:10.579Z,73.06
2018-08-09T00:22:38.911Z,72.93
2018-08-09T00:25:07.778Z,72.43
2018-08-09T00:27:36.245Z,73.10
2018-08-09T00:30:05.643Z,72.46
2018-08-09T00:32:34.339Z,72.52
2018-08-09T00:35:02.739Z,72.71
2018-08-09T00:37:31.093Z,72.97
2018-08-09T00:39:59.665Z,72.71
2018-08-09T00:42:27.999Z,72.72
2018-08-09T00:44:56.588Z,73.17
2018-08-09T00:47:24.932Z,73.52
2018-08-09T00:49:53.308Z,73.08
2018-08-09T00:52:21.694Z,73.06
2018-08-09T00:54:50.092Z,73.95
2018-08-09T00:57:18.747Z,72.39
2018-08-09T00:59:47.157Z,73.16
2018-08-09T01:02:15.796Z,73.40
2018-08-09T01:04:44.231Z,73.26
2018-08-09T01:07:12.582Z,73.31
2018-08-09T01:09:40.968Z,74.27
2018-08-09T01:12:09.385Z,74.36
2018-08-09T01:14:37.748Z,74.18
2018-08-09T01:17:06.176Z,73.55
2018-08-09T01:19:34.515Z,74.08
2018-08-09T01:22:02.965Z,73.58
2018-08-09T01:24:31.342Z,74.16
2018-08-09T01:26:59.714Z,73.76
2018-08-09T01:29:28.121Z,73.92
2018-08-09T01:31:56.457Z,74.23
2018-08-09T01:34:24.875Z,74.74
2018-08-09T01:36:53.258Z,75.26
2018-08-09T01:39:21.702Z,74.38
2018-08-09T01:42:01.195Z,75.06
2018-08-09T01:44:29.549Z,74.76
2018-08-09T01:46:58.168Z,74.70
2018-08-09T01:49:26.586Z,75.16
2018-08-09T01:51:54.975Z,75.03
2018-08-09T01:54:23.302Z,75.13
2018-08-09T01:56:51.724Z,74.80
2018-08-09T01:59:20.093Z,75.05
2018-08-09T02:01:48.452Z,76.38
2018-08-09T02:04:16.792Z,76.43
2018-08-09T02:06:45.147Z,76.91
2018-08-09T02:09:17.649Z,76.41
2018-08-09T02:11:46.031Z,76.45
2018-08-09T02:14:14.411Z,76.72
2018-08-09T02:16:42.765Z,76.63
2018-08-09T02:19:11.125Z,76.72
2018-08-09T02:22:09.931Z,77.18
2018-08-09T02:24:38.241Z,77.73
2018-08-09T02:27:06.671Z,77.75
2018-08-09T02:29:35.042Z,78.08
2018-08-09T02:32:03.392Z,78.63
2018-08-09T02:34:31.763Z,78.77
2018-08-09T02:39:24.048Z,79.01
2018-08-09T02:41:52.424Z,79.98
2018-08-09T02:44:20.978Z,79.61
2018-08-09T02:46:49.340Z,79.80
2018-08-09T02:49:17.684Z,79.88
2018-08-09T02:51:46.246Z,79.80
2018-08-09T02:54:14.929Z,80.13
2018-08-09T02:56:43.333Z,80.21
2018-08-09T02:59:11.743Z,80.34
2018-08-09T03:01:40.073Z,80.41
2018-08-09T03:04:08.459Z,80.60
2018-08-09T03:06:36.883Z,80.96
2018-08-09T03:09:08.653Z,80.91
2018-08-09T03:11:36.983Z,80.98
2018-08-09T03:14:05.370Z,81.17
2018-08-09T03:16:33.809Z,81.43
2018-08-09T03:19:02.206Z,81.44
2018-08-09T03:21:30.586Z,81.44
2018-08-09T03:23:58.940Z,82.36
2018-08-09T03:26:27.291Z,81.72
2018-08-09T03:28:55.616Z,82.00
2018-08-09T03:31:23.941Z,82.22
2018-08-09T03:33:52.700Z,82.63
2018-08-09T03:36:21.039Z,83.08
2018-08-09T03:38:49.373Z,85.21
2018-08-09T03:41:17.870Z,85.64
2018-08-09T03:43:46.589Z,84.52
2018-08-09T03:46:15.000Z,84.81
2018-08-09T03:48:43.410Z,83.99
2018-08-09T03:51:11.742Z,84.09
2018-08-09T03:53:40.194Z,85.03
2018-08-09T03:56:08.566Z,84.96
2018-08-09T03:58:36.950Z,84.11
2018-08-09T04:01:05.420Z,84.78
2018-08-09T04:03:33.830Z,84.44
2018-08-09T04:06:02.245Z,84.84
2018-08-09T04:08:30.630Z,84.65
2018-08-09T04:10:59.036Z,84.35
2018-08-09T04:13:27.745Z,84.38
2018-08-09T04:15:56.134Z,84.05
2018-08-09T04:18:24.520Z,84.58
2018-08-09T04:20:52.883Z,84.50
2018-08-09T04:23:21.264Z,84.40
2018-08-09T04:25:49.666Z,83.42
2018-08-09T04:28:18.763Z,83.52
2018-08-09T04:30:47.158Z,83.60
2018-08-09T04:33:15.562Z,83.23
2018-08-09T04:35:43.960Z,83.01
2018-08-09T04:38:12.295Z,83.57
2018-08-09T04:40:40.672Z,83.58
2018-08-09T04:43:08.999Z,83.86
2018-08-09T04:45:37.347Z,83.99
2018-08-09T04:48:05.809Z,83.77
2018-08-09T04:50:34.378Z,84.06
2018-08-09T04:53:02.709Z,83.73
2018-08-09T04:55:31.032Z,84.12
2018-08-09T04:57:59.465Z,84.30
2018-08-09T05:00:27.794Z,84.72
2018-08-09T05:02:56.196Z,84.89
2018-08-09T05:05:24.513Z,83.68
2018-08-09T05:07:52.839Z,84.76
2018-08-09T05:10:21.271Z,83.91
2018-08-09T05:12:49.584Z,84.36
2018-08-09T05:15:17.963Z,84.23
2018-08-09T05:17:46.395Z,85.08
2018-08-09T05:20:14.766Z,84.35
2018-08-09T05:22:43.152Z,84.40
2018-08-09T05:25:11.594Z,83.92
2018-08-09T05:27:39.965Z,82.99
2018-08-09T05:30:08.416Z,82.84
2018-08-09T05:32:36.818Z,83.25
2018-08-09T05:35:05.266Z,82.74
2018-08-09T05:37:33.813Z,82.60
2018-08-09T05:40:02.210Z,82.38
2018-08-09T05:42:30.583Z,82.29
2018-08-09T05:44:58.952Z,82.73
2018-08-09T05:47:27.322Z,81.96
2018-08-09T05:49:55.669Z,81.27
2018-08-09T05:52:24.074Z,81.08
2018-08-09T05:54:52.471Z,81.55
2018-08-09T05:57:20.845Z,81.03
2018-08-09T05:59:49.190Z,80.68
2018-08-09T06:02:17.536Z,80.25
2018-08-09T06:04:45.947Z,79.96
2018-08-09T06:07:14.398Z,79.89
2018-08-09T06:09:42.744Z,79.19
2018-08-09T06:12:11.182Z,77.66
2018-08-09T06:14:39.537Z,77.20
2018-08-09T06:17:07.939Z,75.33
2018-08-09T06:19:36.324Z,75.08
2018-08-09T06:22:04.847Z,73.15
2018-08-09T06:24:33.281Z,74.27
2018-08-09T06:27:01.748Z,71.91
2018-08-09T06:29:30.175Z,73.26
2018-08-09T06:31:58.498Z,71.21
2018-08-09T06:34:26.922Z,70.50
2018-08-09T06:36:55.261Z,70.17
2018-08-09T06:39:23.642Z,69.99
2018-08-09T06:41:52.028Z,71.38
2018-08-09T06:44:20.438Z,72.43
2018-08-09T06:46:48.808Z,72.76
2018-08-09T06:49:17.150Z,72.25
2018-08-09T06:51:45.478Z,73.12
2018-08-09T06:54:13.900Z,72.79
2018-08-09T06:56:42.269Z,72.38
2018-08-09T06:59:10.612Z,71.81
2018-08-09T07:01:38.967Z,70.24
2018-08-09T07:04:07.613Z,70.09
2018-08-09T07:06:35.990Z,69.00
2018-08-09T07:09:07.322Z,66.57
2018-08-09T07:11:35.736Z,64.91
2018-08-09T07:14:04.238Z,65.22
2018-08-09T07:16:32.711Z,65.28
2018-08-09T07:19:02.082Z,64.32
2018-08-09T07:21:32.018Z,63.70
2018-08-09T07:24:00.401Z,61.72
2018-08-09T07:26:28.804Z,60.66
2018-08-09T07:28:57.135Z,60.00
2018-08-09T07:31:25.542Z,58.30
2018-08-09T07:33:54.042Z,57.83
2018-08-09T07:36:22.352Z,57.83
2018-08-09T07:38:50.703Z,56.68
2018-08-09T07:41:19.108Z,57.53
2018-08-09T07:43:47.532Z,59.25
2018-08-09T07:46:18.751Z,56.98
2018-08-09T07:48:47.119Z,56.78
2018-08-09T07:51:15.509Z,56.79
2018-08-09T07:53:43.911Z,58.42
2018-08-09T07:56:12.397Z,56.01
2018-08-09T07:58:40.844Z,54.88
2018-08-09T08:01:09.840Z,54.80
2018-08-09T08:03:38.153Z,55.92
2018-08-09T08:06:06.557Z,54.64
2018-08-09T08:08:34.923Z,54.88
2018-08-09T08:11:04.231Z,56.02
2018-08-09T08:13:34.416Z,54.26
2018-08-09T08:16:02.765Z,54.53
2018-08-09T08:18:31.209Z,52.71
2018-08-09T08:20:59.676Z,53.09
2018-08-09T08:23:28.053Z,52.25
2018-08-09T08:25:56.439Z,51.91
2018-08-09T08:28:24.918Z,50.80
2018-08-09T08:30:53.279Z,53.08
2018-08-09T08:33:21.670Z,52.15
2018-08-09T08:35:50.086Z,51.65
2018-08-09T08:38:18.815Z,52.74
2018-08-09T08:40:47.226Z,51.52
2018-08-09T08:43:15.589Z,50.92
2018-08-09T08:45:43.948Z,51.22
2018-08-09T08:48:12.380Z,52.46
2018-08-09T08:50:40.796Z,51.97
2018-08-09T08:53:09.602Z,53.29
2018-08-09T08:55:38.534Z,51.89
2018-08-09T08:58:06.894Z,51.71
2018-08-09T09:00:35.342Z,53.16
2018-08-09T09:03:03.738Z,53.46
2018-08-09T09:05:32.056Z,53.81
2018-08-09T09:08:00.446Z,52.69
2018-08-09T09:10:29.160Z,53.32
2018-08-09T09:12:57.675Z,53.47
2018-08-09T09:15:26.054Z,51.73
2018-08-09T09:17:54.425Z,51.33
2018-08-09T09:20:22.823Z,51.30
2018-08-09T09:22:51.245Z,51.64
2018-08-09T09:25:19.866Z,52.46
2018-08-09T09:27:48.254Z,51.42
2018-08-09T09:30:18.346Z,51.68
2018-08-09T09:32:46.930Z,52.31
2018-08-09T09:35:15.357Z,50.95
2018-08-09T09:37:44.023Z,51.04
2018-08-09T09:40:12.507Z,51.24
2018-08-09T09:42:40.849Z,50.09
2018-08-09T09:45:10.203Z,50.49
2018-08-09T09:47:38.644Z,51.07
2018-08-09T09:50:08.556Z,50.54
2018-08-09T09:52:36.963Z,51.55
2018-08-09T09:55:05.745Z,51.87
2018-08-09T09:57:34.099Z,51.59
2018-08-09T10:00:03.041Z,50.61
2018-08-09T10:02:31.431Z,50.74
2018-08-09T10:04:59.970Z,49.73
2018-08-09T10:07:28.298Z,49.16
2018-08-09T10:09:56.664Z,49.57
2018-08-09T10:12:25.074Z,50.24
2018-08-09T10:14:53.479Z,50.36
2018-08-09T10:17:21.830Z,50.06
2018-08-09T10:19:50.210Z,49.67
2018-08-09T10:22:18.971Z,49.19
2018-08-09T10:24:47.348Z,50.39
2018-08-09T10:27:15.756Z,49.93
2018-08-09T10:29:44.112Z,49.84
2018-08-09T10:32:12.439Z,51.31
2018-08-09T10:34:40.850Z,50.16
2018-08-09T10:37:09.228Z,48.67
2018-08-09T10:39:37.628Z,50.24
2018-08-09T10:42:05.971Z,49.60
2018-08-09T10:44:34.304Z,50.42
2018-08-09T10:47:02.653Z,49.97
2018-08-09T10:49:31.068Z,49.65
2018-08-09T10:51:59.483Z,49.12
2018-08-09T10:54:27.809Z,49.44
2018-08-09T10:56:56.540Z,50.68
2018-08-09T10:59:24.904Z,50.91
2018-08-09T11:01:53.315Z,50.92
2018-08-09T11:04:21.685Z,49.86
2018-08-09T11:06:50.040Z,49.54
2018-08-09T11:09:18.432Z,50.18
2018-08-09T11:11:46.802Z,49.24
2018-08-09T11:14:15.256Z,49.55
2018-08-09T11:16:43.717Z,49.90
2018-08-09T11:19:12.194Z,50.43
2018-08-09T11:21:40.616Z,50.42
2018-08-09T11:24:09.003Z,49.81
2018-08-09T11:26:37.523Z,49.47
2018-08-09T11:29:05.988Z,50.42
2018-08-09T11:31:34.434Z,49.36
2018-08-09T11:34:03.123Z,49.80
2018-08-09T11:36:31.538Z,49.06
2018-08-09T11:38:59.935Z,48.51
2018-08-09T11:41:28.338Z,47.72
2018-08-09T11:43:56.762Z,48.17
2018-08-09T11:46:25.241Z,49.56
2018-08-09T11:48:53.585Z,49.47
2018-08-09T11:51:21.978Z,49.86
2018-08-09T11:53:50.455Z,50.66
2018-08-09T11:56:18.876Z,49.78
2018-08-09T11:58:47.300Z,49.79
2018-08-09T12:01:15.694Z,49.98
2018-08-09T12:03:44.084Z,49.52
2018-08-09T12:06:12.434Z,49.20
2018-08-09T12:08:40.802Z,49.12
2018-08-09T12:11:09.291Z,47.97
2018-08-09T12:13:37.889Z,48.86
2018-08-09T12:16:06.222Z,46.19
2018-08-09T12:18:34.635Z,47.29
2018-08-09T12:21:03.150Z,47.83
2018-08-09T12:23:31.557Z,46.67
2018-08-09T12:26:00.004Z,46.25
2018-08-09T12:28:28.486Z,47.78
2018-08-09T12:30:56.843Z,46.61
2018-08-09T12:33:25.788Z,46.40
2018-08-09T12:35:54.167Z,46.32
2018-08-09T12:38:22.458Z,45.71
2018-08-09T12:40:51.207Z,46.17
2018-08-09T12:43:19.652Z,46.13
2018-08-09T12:45:48.021Z,46.23
2018-08-09T12:48:16.433Z,45.83
2018-08-09T12:50:45.088Z,45.16
2018-08-09T12:53:13.522Z,45.74
2018-08-09T12:55:41.958Z,44.75
2018-08-09T12:58:10.389Z,44.17
2018-08-09T13:00:38.809Z,44.17
2018-08-09T13:03:07.178Z,44.88
2018-08-09T13:05:35.559Z,45.75
2018-08-09T13:08:03.956Z,45.74
2018-08-09T13:10:32.377Z,46.83
2018-08-09T13:13:00.820Z,46.12
2018-08-09T13:15:29.172Z,45.37
2018-08-09T13:17:57.637Z,45.52
2018-08-09T13:20:26.144Z,45.07
2018-08-09T13:22:54.537Z,45.30
2018-08-09T13:25:22.930Z,45.91
2018-08-09T13:27:51.404Z,45.38
2018-08-09T13:30:19.824Z,44.42
2018-08-09T13:32:48.348Z,44.83
2018-08-09T13:35:16.754Z,43.92
2018-08-09T13:37:45.205Z,44.21
2018-08-09T13:40:13.582Z,45.11
2018-08-09T13:42:42.100Z,44.25
2018-08-09T13:45:21.258Z,44.10
2018-08-09T13:47:49.675Z,43.32
2018-08-09T13:50:18.088Z,42.58
2018-08-09T13:52:46.489Z,42.34
2018-08-09T13:55:15.614Z,41.62
2018-08-09T13:57:44.381Z,41.47
2018-08-09T14:00:13.721Z,41.97
2018-08-09T14:02:43.688Z,40.27
2018-08-09T14:05:12.102Z,40.32
2018-08-09T14:07:42.131Z,40.10
2018-08-09T14:10:11.572Z,41.52
2018-08-09T14:12:40.521Z,40.21
2018-08-09T14:15:09.866Z,40.55
2018-08-09T14:17:38.831Z,40.06
2018-08-09T14:20:08.964Z,39.95
2018-08-09T14:22:37.375Z,39.85
2018-08-09T14:25:06.258Z,38.68
2018-08-09T14:27:34.711Z,39.23
2018-08-09T14:30:03.117Z,39.15
2018-08-09T14:32:31.549Z,38.97
2018-08-09T14:34:59.926Z,37.67
2018-08-09T14:37:28.334Z,38.63
2018-08-09T14:39:58.377Z,38.28
2018-08-09T14:42:26.984Z,37.85
2018-08-09T14:44:55.539Z,38.20
2018-08-09T14:47:23.981Z,37.17
2018-08-09T14:49:52.421Z,37.36
2018-08-09T14:52:20.879Z,36.45
2018-08-09T14:54:49.345Z,37.00
2018-08-09T14:57:17.792Z,36.60
2018-08-09T14:59:46.198Z,36.64
2018-08-09T15:02:14.705Z,37.17
2018-08-09T15:04:43.245Z,36.62
2018-08-09T15:07:11.626Z,36.45
2018-08-09T15:09:40.075Z,35.46
2018-08-09T15:12:08.607Z,35.99
2018-08-09T15:14:37.081Z,36.27
2018-08-09T15:17:05.622Z,36.32
2018-08-09T15:19:34.244Z,36.91
2018-08-09T15:22:02.645Z,36.55
2018-08-09T15:24:31.317Z,36.36
2018-08-09T15:26:59.716Z,36.79
2018-08-09T15:29:28.105Z,36.37
2018-08-09T15:31:56.527Z,36.62
2018-08-09T15:34:24.968Z,36.37
2018-08-09T15:36:53.437Z,35.16
2018-08-09T15:39:21.824Z,36.28
2018-08-09T15:41:50.223Z,36.06
2018-08-09T15:44:18.552Z,37.38
2018-08-09T15:46:46.988Z,36.69
2018-08-09T15:49:15.438Z,37.64
2018-08-09T15:51:43.895Z,36.66
2018-08-09T15:54:12.223Z,37.56
2018-08-09T15:56:40.595Z,37.70
2018-08-09T15:59:08.968Z,39.25
2018-08-09T16:01:37.478Z,40.87
2018-08-09T16:04:05.850Z,42.18
2018-08-09T16:06:34.260Z,42.55
2018-08-09T16:09:02.713Z,42.92
2018-08-09T16:11:31.332Z,43.84
2018-08-09T16:14:07.778Z,45.14
2018-08-09T16:16:37.354Z,45.60
2018-08-09T16:19:06.511Z,47.18
2018-08-09T16:21:34.839Z,47.53
2018-08-09T16:24:03.295Z,47.78
2018-08-09T16:26:31.839Z,48.88
2018-08-09T16:29:00.342Z,49.51
2018-08-09T16:31:29.028Z,52.70
2018-08-09T16:33:57.640Z,53.59
2018-08-09T16:36:26.176Z,54.38
2018-08-09T16:38:54.958Z,56.19
2018-08-09T16:41:26.516Z,58.48
2018-08-09T16:43:56.189Z,58.46
2018-08-09T16:46:24.828Z,60.16
2018-08-09T16:48:53.567Z,62.12
2018-08-09T16:51:22.096Z,63.69
2018-08-09T16:53:51.981Z,74.89
2018-08-09T16:56:23.608Z,80.74
2018-08-09T16:58:52.114Z,86.78
2018-08-09T17:01:21.870Z,92.00
2018-08-09T17:03:50.362Z,91.79
2018-08-09T17:06:18.884Z,93.89
2018-08-09T17:08:47.701Z,94.03
2018-08-09T17:11:16.491Z,93.97
2018-08-09T17:13:45.312Z,96.32
2018-08-09T17:16:14.144Z,95.42
2018-08-09T17:18:42.643Z,97.31
2018-08-09T17:21:11.202Z,98.53
2018-08-09T17:23:39.806Z,93.65
2018-08-09T17:26:10.311Z,97.24
2018-08-09T17:28:39.783Z,94.42
2018-08-09T17:31:09.060Z,96.94
2018-08-09T17:33:38.052Z,98.49
2018-08-09T17:36:06.815Z,97.88
2018-08-09T17:38:35.964Z,97.18
2018-08-09T17:41:04.757Z,98.12
2018-08-09T17:43:33.230Z,98.54
2018-08-09T17:46:02.193Z,97.01
2018-08-09T17:48:32.473Z,95.41
2018-08-09T17:51:01.447Z,95.20
2018-08-09T17:53:31.168Z,94.70
2018-08-09T17:56:00.598Z,95.15
2018-08-09T17:58:29.961Z,95.55
2018-08-09T18:00:59.069Z,96.15
2018-08-09T18:03:28.967Z,96.43
2018-08-09T18:05:58.507Z,99.90
2018-08-09T18:08:27.594Z,97.34
2018-08-09T18:10:56.563Z,97.58
2018-08-09T18:13:25.462Z,99.37
2018-08-09T18:15:58.546Z,97.20
2018-08-09T18:18:27.239Z,97.59
2018-08-09T18:20:55.865Z,99.58
2018-08-09T18:23:25.351Z,100.00
2018-08-09T18:25:54.545Z,99.54
2018-08-09T18:28:24.190Z,100.00
2018-08-09T18:30:53.634Z,100.00
2018-08-09T18:33:23.271Z,100.00
2018-08-09T18:35:53.195Z,100.00
2018-08-09T18:38:22.788Z,100.00
2018-08-09T18:40:52.115Z,100.00
2018-08-09T18:43:21.311Z,100.00
2018-08-09T18:45:50.994Z,100.00
2018-08-09T18:48:20.492Z,100.00
2018-08-09T18:50:49.753Z,100.00
2018-08-09T18:53:19.357Z,97.39
2018-08-09T18:55:50.528Z,100.00
2018-08-09T18:58:19.763Z,98.43
2018-08-09T19:00:48.935Z,99.05
2018-08-09T19:03:18.250Z,96.54
2018-08-09T19:05:46.634Z,97.27
2018-08-09T19:08:15.932Z,96.86
2018-08-09T19:10:45.359Z,96.03
2018-08-09T19:13:15.179Z,96.62
2018-08-09T19:15:44.501Z,96.94
2018-08-09T19:18:13.579Z,97.16
2018-08-09T19:20:42.909Z,99.79
2018-08-09T19:23:13.366Z,100.00
2018-08-09T19:25:42.541Z,99.41
2018-08-09T19:28:11.816Z,98.28
2018-08-09T19:30:41.288Z,96.54
2018-08-09T19:33:10.548Z,95.58
2018-08-09T19:35:39.843Z,95.91
2018-08-09T19:38:09.191Z,93.32
2018-08-09T19:40:38.599Z,94.88
2018-08-09T19:43:07.932Z,94.75
2018-08-09T19:45:37.219Z,94.46
2018-08-09T19:48:06.538Z,93.61
2018-08-09T19:50:35.867Z,93.51
2018-08-09T19:53:05.743Z,93.08
2018-08-09T19:55:36.045Z,92.77
2018-08-09T19:58:06.938Z,95.97
2018-08-09T20:00:38.206Z,97.30
2018-08-09T20:03:07.564Z,97.60
2018-08-09T20:05:36.736Z,97.04
2018-08-09T20:08:07.679Z,96.01
2018-08-09T20:10:37.975Z,96.10
2018-08-09T20:13:07.585Z,96.71
2018-08-09T20:15:39.892Z,96.19
2018-08-09T20:18:09.120Z,94.41
2018-08-09T20:20:39.383Z,94.65
2018-08-09T20:23:08.734Z,94.05
2018-08-09T20:25:38.024Z,96.02
2018-08-09T20:28:07.379Z,94.45
2018-08-09T20:30:36.534Z,95.33
2018-08-09T20:33:06.586Z,94.82
2018-08-09T20:35:35.863Z,94.95
2018-08-09T20:38:05.958Z,93.17
2018-08-09T20:40:35.285Z,93.17
2018-08-09T20:43:10.723Z,93.27
2018-08-09T20:45:39.782Z,92.57
2018-08-09T20:48:09.012Z,93.91
2018-08-09T20:50:38.252Z,93.74
2018-08-09T20:53:08.068Z,94.45
2018-08-09T20:55:37.094Z,92.16
2018-08-09T20:58:06.392Z,92.51
2018-08-09T21:00:36.517Z,92.85
2018-08-09T21:03:05.874Z,92.94
2018-08-09T21:05:37.065Z,93.70
2018-08-09T21:08:05.806Z,93.96
2018-08-09T21:10:35.343Z,93.35
2018-08-09T21:13:04.074Z,93.29
2018-08-09T21:15:33.160Z,92.13
2018-08-09T21:18:02.165Z,92.24
2018-08-09T21:20:31.123Z,91.60
2018-08-09T21:22:59.642Z,92.21
2018-08-09T21:25:28.897Z,91.74
2018-08-09T21:27:59.127Z,91.82
2018-08-09T21:30:28.449Z,90.91
2018-08-09T21:32:57.469Z,90.77
2018-08-09T21:35:27.036Z,91.39
2018-08-09T21:37:55.823Z,89.84
2018-08-09T21:40:24.843Z,90.97
2018-08-09T21:42:54.143Z,90.81
2018-08-09T21:45:23.485Z,90.01
2018-08-09T21:47:52.665Z,90.66
2018-08-09T21:50:22.973Z,90.69
2018-08-09T21:52:52.336Z,90.98
2018-08-09T21:55:21.656Z,89.96
2018-08-09T21:57:50.604Z,90.02
2018-08-09T22:00:49.260Z,89.22
2018-08-09T22:03:20.539Z,90.49
2018-08-09T22:05:54.930Z,89.75
2018-08-09T22:08:30.015Z,89.40
2018-08-09T22:13:07.616Z,90.36
2018-08-09T22:15:41.219Z,88.35
2018-08-09T22:20:17.907Z,88.68
2018-08-09T22:22:46.743Z,89.87
2018-08-09T22:25:15.400Z,89.66
2018-08-09T22:27:44.598Z,89.67
2018-08-09T22:30:15.024Z,88.87
2018-08-09T22:32:44.008Z,88.19
2018-08-09T22:35:12.658Z,86.66
2018-08-09T22:37:41.815Z,87.24
2018-08-09T22:40:11.317Z,87.88
2018-08-09T22:42:40.369Z,87.22
2018-08-09T22:45:09.873Z,87.86
2018-08-09T22:47:39.001Z,86.44
2018-08-09T22:50:08.328Z,86.08
2018-08-09T22:52:37.581Z,86.05
2018-08-09T22:55:06.047Z,85.32
2018-08-09T22:57:35.115Z,85.62
2018-08-09T23:00:06.486Z,84.41
2018-08-09T23:02:35.544Z,84.32
2018-08-09T23:05:04.229Z,83.73
2018-08-09T23:07:32.640Z,84.62
2018-08-09T23:10:01.090Z,83.65
2018-08-09T23:12:29.467Z,84.83
2018-08-09T23:14:57.852Z,83.76
2018-08-09T23:17:26.199Z,83.21
2018-08-09T23:19:54.604Z,84.20
2018-08-09T23:22:22.920Z,82.62
2018-08-09T23:24:51.295Z,82.66
2018-08-09T23:27:19.700Z,83.59
2018-08-09T23:29:48.141Z,84.32
2018-08-09T23:32:16.526Z,82.73
2018-08-09T23:34:45.908Z,83.83
2018-08-09T23:37:14.392Z,83.12
2018-08-09T23:39:42.765Z,83.74
2018-08-09T23:42:11.228Z,83.42
2018-08-09T23:44:39.612Z,83.04
2018-08-09T23:47:08.170Z,83.01
2018-08-09T23:49:36.696Z,84.81
2018-08-09T23:52:05.157Z,84.78
2018-08-09T23:54:33.512Z,84.22
2018-08-09T23:57:01.932Z,84.31
2018-08-09T23:59:30.249Z,84.99
